Terminal Aerodrome Forecast
Issued by NWS

Home | Current Version | Previous Version | Text Only | Print | Product List | Glossary On
Versions: 1 2 3 4 5 6 7 8 9 10 11 12 13 14 15 16
443
FTUS44 KLZK 221120
TAFHOT
TAF
KHOT 221120Z 2212/2312 00000KT P6SM BKN009
      TEMPO 2212/2214 3SM BR
     FM221400 VRB02KT P6SM SCT009 BKN012
     FM221800 20004KT P6SM SCT012 SCT040
     FM230600 VRB03KT 4SM BR BKN010
      TEMPO 2308/2312 2SM BR BKN005=

USA.gov is the U.S. government's official web portal to all federal, state and local government web resources and services.